createdAt,value
2019-04-14T00:02:09.611Z,26.73
2019-04-14T00:05:17.317Z,26.93
2019-04-14T00:08:24.589Z,23.27
2019-04-14T00:11:40.887Z,23.70
2019-04-14T00:14:49.121Z,21.10
2019-04-14T00:17:56.803Z,23.23
2019-04-14T00:21:04.748Z,24.70
2019-04-14T00:24:12.551Z,24.37
2019-04-14T00:27:20.038Z,21.30
2019-04-14T00:30:27.872Z,22.37
2019-04-14T00:33:36.657Z,23.80
2019-04-14T00:37:09.918Z,24.73
2019-04-14T00:40:29.257Z,25.07
2019-04-14T00:43:41.732Z,23.93
2019-04-14T00:47:00.630Z,25.90
2019-04-14T00:50:10.056Z,25.90
2019-04-14T00:53:18.503Z,22.03
2019-04-14T00:56:26.145Z,25.10
2019-04-14T00:59:33.737Z,21.13
2019-04-14T01:02:41.011Z,23.67
2019-04-14T01:05:48.678Z,24.57
2019-04-14T01:08:57.465Z,26.03
2019-04-14T01:12:06.068Z,29.23
2019-04-14T01:15:13.863Z,24.20
2019-04-14T01:18:23.234Z,25.20
2019-04-14T01:21:30.817Z,24.30
2019-04-14T01:24:38.304Z,27.10
2019-04-14T01:27:45.693Z,26.53
2019-04-14T01:30:54.356Z,26.33
2019-04-14T01:34:04.057Z,24.43
2019-04-14T01:37:11.579Z,23.03
2019-04-14T01:40:18.833Z,25.80
2019-04-14T01:43:26.146Z,25.13
2019-04-14T01:46:35.470Z,27.70
2019-04-14T01:49:44.398Z,23.17
2019-04-14T01:53:01.818Z,27.93
2019-04-14T01:56:19.175Z,28.63
2019-04-14T01:59:26.736Z,27.13
2019-04-14T02:02:33.911Z,25.83
2019-04-14T02:05:41.299Z,27.23
2019-04-14T02:08:49.840Z,25.27
2019-04-14T02:11:57.647Z,23.50
2019-04-14T02:15:06.920Z,26.97
2019-04-14T02:18:14.421Z,24.33
2019-04-14T02:21:22.070Z,24.00
2019-04-14T02:24:30.977Z,23.73
2019-04-14T02:27:38.439Z,24.10
2019-04-14T02:30:53.605Z,21.47
2019-04-14T02:34:32.064Z,23.27
2019-04-14T02:40:43.762Z,23.67
2019-04-14T02:43:52.353Z,23.50
2019-04-14T02:47:12.820Z,22.00
2019-04-14T02:50:04.799Z,23.07
2019-04-14T02:53:35.169Z,22.13
2019-04-14T02:59:41.491Z,22.83
2019-04-14T03:02:42.316Z,24.73
2019-04-14T03:06:10.428Z,25.37
2019-04-14T03:09:11.979Z,23.33
2019-04-14T03:12:09.664Z,21.53
2019-04-14T03:18:50.631Z,22.27
2019-04-14T03:22:33.119Z,26.90
2019-04-14T03:25:31.755Z,24.30
2019-04-14T03:28:44.183Z,22.93
2019-04-14T03:35:22.164Z,20.20
2019-04-14T03:41:25.927Z,24.37
2019-04-14T03:44:34.662Z,20.77
2019-04-14T03:47:52.953Z,22.33
2019-04-14T03:50:52.467Z,24.47
2019-04-14T03:54:01.321Z,22.30
2019-04-14T03:56:48.976Z,21.00
2019-04-14T03:59:56.428Z,21.37
2019-04-14T04:03:04.146Z,22.70
2019-04-14T04:06:11.805Z,21.77
2019-04-14T04:09:21.475Z,25.43
2019-04-14T04:12:29.247Z,22.77
2019-04-14T04:15:37.228Z,23.67
2019-04-14T04:18:54.575Z,22.33
2019-04-14T04:22:17.108Z,21.53
2019-04-14T04:25:44.330Z,21.50
2019-04-14T04:29:01.023Z,23.93
2019-04-14T04:32:16.501Z,21.50
2019-04-14T04:35:33.179Z,22.70
2019-04-14T04:38:53.149Z,21.47
2019-04-14T04:42:02.669Z,22.20
2019-04-14T04:45:10.423Z,26.13
2019-04-14T04:48:19.523Z,25.30
2019-04-14T04:51:27.209Z,25.70
2019-04-14T04:54:34.904Z,24.40
2019-04-14T04:57:42.188Z,24.00
2019-04-14T05:00:52.498Z,29.20
2019-04-14T05:04:00.327Z,26.03
2019-04-14T05:07:08.077Z,26.67
2019-04-14T05:10:26.409Z,24.33
2019-04-14T05:13:38.345Z,22.10
2019-04-14T05:16:46.122Z,29.53
2019-04-14T05:19:54.066Z,25.63
2019-04-14T05:23:02.073Z,26.53
2019-04-14T05:26:09.345Z,29.03
2019-04-14T05:29:17.051Z,25.50
2019-04-14T05:32:24.319Z,27.27
2019-04-14T05:35:31.737Z,27.43
2019-04-14T05:38:40.807Z,24.37
2019-04-14T05:42:00.596Z,25.23
2019-04-14T05:44:57.912Z,25.33
2019-04-14T05:48:05.434Z,25.00
2019-04-14T05:51:13.099Z,25.17
2019-04-14T05:54:21.176Z,23.27
2019-04-14T05:57:28.844Z,21.83
2019-04-14T06:00:38.531Z,23.30
2019-04-14T06:03:47.426Z,23.17
2019-04-14T06:06:55.165Z,23.87
2019-04-14T06:10:04.159Z,24.57
2019-04-14T06:13:12.072Z,23.97
2019-04-14T06:16:20.801Z,24.03
2019-04-14T06:19:37.168Z,25.57
2019-04-14T06:22:38.093Z,24.13
2019-04-14T06:25:45.784Z,23.93
2019-04-14T06:28:53.167Z,23.50
2019-04-14T06:32:20.337Z,23.60
2019-04-14T06:35:51.302Z,23.83
2019-04-14T06:39:05.114Z,24.33
2019-04-14T06:42:13.126Z,23.57
2019-04-14T06:45:20.454Z,23.73
2019-04-14T06:48:28.697Z,25.57
2019-04-14T06:51:36.869Z,24.57
2019-04-14T06:54:44.468Z,21.60
2019-04-14T06:57:51.833Z,26.97
2019-04-14T07:00:59.319Z,27.37
2019-04-14T07:04:06.864Z,26.70
2019-04-14T07:07:14.220Z,24.70
2019-04-14T07:10:21.822Z,21.67
2019-04-14T07:13:30.235Z,27.60
2019-04-14T07:16:38.008Z,23.80
2019-04-14T07:19:45.729Z,24.77
2019-04-14T07:22:53.340Z,25.77
2019-04-14T07:26:00.875Z,24.53
2019-04-14T07:29:08.699Z,23.53
2019-04-14T07:32:35.043Z,24.83
2019-04-14T07:35:59.693Z,24.83
2019-04-14T07:39:25.844Z,25.03
2019-04-14T07:42:42.834Z,22.63
2019-04-14T07:46:09.829Z,23.63
2019-04-14T07:49:36.322Z,21.37
2019-04-14T07:52:56.141Z,22.70
2019-04-14T07:56:22.145Z,23.20
2019-04-14T07:59:58.894Z,21.70
2019-04-14T08:03:22.294Z,19.97
2019-04-14T08:06:30.934Z,21.63
2019-04-14T08:09:38.313Z,20.67
2019-04-14T08:12:46.722Z,19.37
2019-04-14T08:15:54.741Z,21.23
2019-04-14T08:19:02.364Z,22.53
2019-04-14T08:22:09.989Z,20.33
2019-04-14T08:25:17.976Z,22.23
2019-04-14T08:28:25.768Z,20.80
2019-04-14T08:31:33.407Z,22.70
2019-04-14T08:34:41.753Z,22.07
2019-04-14T08:37:49.263Z,18.53
2019-04-14T08:40:57.363Z,18.00
2019-04-14T08:44:13.355Z,19.47
2019-04-14T08:47:35.493Z,20.07
2019-04-14T08:50:56.527Z,18.87
2019-04-14T08:54:09.749Z,21.43
2019-04-14T08:57:25.971Z,18.43
2019-04-14T09:00:48.154Z,18.87
2019-04-14T09:04:15.573Z,18.47
2019-04-14T09:07:27.176Z,20.50
2019-04-14T09:10:38.436Z,18.77
2019-04-14T09:13:47.021Z,19.10
2019-04-14T09:16:55.290Z,20.37
2019-04-14T09:20:04.825Z,17.80
2019-04-14T09:23:12.590Z,23.77
2019-04-14T09:26:20.575Z,19.97
2019-04-14T09:29:28.698Z,19.97
2019-04-14T09:32:36.512Z,20.50
2019-04-14T09:35:44.463Z,18.47
2019-04-14T09:38:52.586Z,21.40
2019-04-14T09:42:01.848Z,19.50
2019-04-14T09:45:10.011Z,20.27
2019-04-14T09:48:18.096Z,20.20
2019-04-14T09:51:25.872Z,18.60
2019-04-14T09:54:33.609Z,19.67
2019-04-14T09:57:43.137Z,20.63
2019-04-14T10:00:51.488Z,21.10
2019-04-14T10:04:05.327Z,19.30
2019-04-14T10:07:16.618Z,20.00
2019-04-14T10:10:24.276Z,19.83
2019-04-14T10:13:32.025Z,20.87
2019-04-14T10:16:40.405Z,21.80
2019-04-14T10:19:47.935Z,18.00
2019-04-14T10:22:55.681Z,20.97
2019-04-14T10:26:04.339Z,20.37
2019-04-14T10:29:11.953Z,21.73
2019-04-14T10:32:19.538Z,20.50
2019-04-14T10:35:27.144Z,21.83
2019-04-14T10:38:34.733Z,18.47
2019-04-14T10:41:42.443Z,21.23
2019-04-14T10:44:49.920Z,24.03
2019-04-14T10:47:57.218Z,21.70
2019-04-14T10:51:04.648Z,20.33
2019-04-14T10:54:12.145Z,22.40
2019-04-14T10:57:19.521Z,19.97
2019-04-14T11:00:27.473Z,19.90
2019-04-14T11:03:35.509Z,19.93
2019-04-14T11:07:04.406Z,18.60
2019-04-14T11:10:12.399Z,24.37
2019-04-14T11:13:19.581Z,17.93
2019-04-14T11:16:26.763Z,20.07
2019-04-14T11:19:34.700Z,19.77
2019-04-14T11:22:41.995Z,25.13
2019-04-14T11:25:49.196Z,18.67
2019-04-14T11:28:56.836Z,19.63
2019-04-14T11:32:23.070Z,22.30
2019-04-14T11:35:35.129Z,20.67
2019-04-14T11:39:05.038Z,21.30
2019-04-14T11:42:12.459Z,19.70
2019-04-14T11:45:20.289Z,21.47
2019-04-14T11:48:27.809Z,18.67
2019-04-14T11:51:35.339Z,21.80
2019-04-14T11:54:42.754Z,19.40
2019-04-14T11:57:50.348Z,19.67
2019-04-14T12:01:16.476Z,18.80
2019-04-14T12:04:31.844Z,20.20
2019-04-14T12:07:48.695Z,19.27
2019-04-14T12:10:56.748Z,20.90
2019-04-14T12:14:05.479Z,21.70
2019-04-14T12:17:13.269Z,21.63
2019-04-14T12:20:20.604Z,19.07
2019-04-14T12:23:28.236Z,20.20
2019-04-14T12:26:35.540Z,18.90
2019-04-14T12:29:43.313Z,21.53
2019-04-14T12:32:52.656Z,18.83
2019-04-14T12:36:02.159Z,26.40
2019-04-14T12:39:21.038Z,20.43
2019-04-14T12:42:54.586Z,18.87
2019-04-14T12:46:22.087Z,20.77
2019-04-14T12:49:39.295Z,20.60
2019-04-14T12:52:49.900Z,19.30
2019-04-14T12:55:57.473Z,19.27
2019-04-14T12:59:24.678Z,23.60
2019-04-14T13:02:36.273Z,26.77
2019-04-14T13:05:44.722Z,22.33
2019-04-14T13:08:52.890Z,21.03
2019-04-14T13:12:00.584Z,22.87
2019-04-14T13:15:09.009Z,20.50
2019-04-14T13:18:17.201Z,21.20
2019-04-14T13:21:25.155Z,19.40
2019-04-14T13:24:32.883Z,22.30
2019-04-14T13:27:40.752Z,20.27
2019-04-14T13:30:49.513Z,18.17
2019-04-14T13:33:57.772Z,19.83
2019-04-14T13:37:10.391Z,20.47
2019-04-14T13:40:18.574Z,19.77
2019-04-14T13:43:26.794Z,22.67
2019-04-14T13:46:34.654Z,21.57
2019-04-14T13:49:42.465Z,19.17
2019-04-14T13:52:51.261Z,19.93
2019-04-14T13:55:59.063Z,18.37
2019-04-14T13:59:06.689Z,20.73
2019-04-14T14:02:14.043Z,18.73
2019-04-14T14:05:22.399Z,18.93
2019-04-14T14:08:30.570Z,23.93
2019-04-14T14:12:00.578Z,20.17
2019-04-14T14:15:47.539Z,18.83
2019-04-14T14:19:09.885Z,16.73
2019-04-14T14:22:31.121Z,20.87
2019-04-14T14:25:42.847Z,17.77
2019-04-14T14:28:50.356Z,17.27
2019-04-14T14:32:01.458Z,18.27
2019-04-14T14:35:09.457Z,16.33
2019-04-14T14:38:17.225Z,18.40
2019-04-14T14:41:25.108Z,21.03
2019-04-14T14:44:38.592Z,19.63
2019-04-14T14:48:11.871Z,16.50
2019-04-14T14:51:38.109Z,18.23
2019-04-14T14:54:45.586Z,17.93
2019-04-14T14:57:54.120Z,17.97
2019-04-14T15:01:04.023Z,15.90
2019-04-14T15:04:11.634Z,15.90
2019-04-14T15:07:19.769Z,16.17
2019-04-14T15:18:16.381Z,19.33
2019-04-14T15:21:26.742Z,18.37
2019-04-14T15:24:34.559Z,15.50
2019-04-14T15:27:42.364Z,16.43
2019-04-14T15:30:50.163Z,16.67
2019-04-14T15:33:57.790Z,17.30
2019-04-14T15:37:05.388Z,17.20
2019-04-14T15:40:13.261Z,17.43
2019-04-14T15:43:21.128Z,18.63
2019-04-14T15:46:28.597Z,21.57
2019-04-14T15:49:36.200Z,18.43
2019-04-14T15:52:44.444Z,19.00
2019-04-14T15:55:52.349Z,20.80
2019-04-14T15:59:08.662Z,19.20
2019-04-14T16:02:55.115Z,18.80
2019-04-14T16:06:15.971Z,20.33
2019-04-14T16:09:30.734Z,18.83
2019-04-14T16:13:01.114Z,17.57
2019-04-14T16:16:31.433Z,22.27
2019-04-14T16:19:53.220Z,19.87
2019-04-14T16:23:01.783Z,18.80
2019-04-14T16:26:26.293Z,18.43
2019-04-14T16:29:41.269Z,18.97
2019-04-14T16:33:14.548Z,17.40
2019-04-14T16:36:22.763Z,21.17
2019-04-14T16:39:30.847Z,19.00
2019-04-14T16:42:39.403Z,18.57
2019-04-14T16:45:47.505Z,17.13
2019-04-14T16:48:55.302Z,15.53
2019-04-14T16:52:22.569Z,17.30
2019-04-14T16:55:35.550Z,19.33
2019-04-14T16:58:46.607Z,16.80
2019-04-14T17:01:54.403Z,17.63
2019-04-14T17:05:04.327Z,15.73
2019-04-14T17:08:12.262Z,18.20
2019-04-14T17:11:20.002Z,23.20
2019-04-14T17:14:41.448Z,18.53
2019-04-14T17:18:08.802Z,15.80
2019-04-14T17:21:30.874Z,17.83
2019-04-14T17:24:56.670Z,19.13
2019-04-14T17:28:23.930Z,17.60
2019-04-14T17:31:50.370Z,20.37
2019-04-14T17:35:25.047Z,19.50
2019-04-14T17:39:10.852Z,16.20
2019-04-14T17:42:27.915Z,17.87
2019-04-14T17:45:45.567Z,18.10
2019-04-14T17:49:12.013Z,21.30
2019-04-14T17:52:40.863Z,22.70
2019-04-14T17:56:07.025Z,20.90
2019-04-14T17:59:25.579Z,19.27
2019-04-14T18:02:58.582Z,21.17
2019-04-14T18:06:24.887Z,19.67
2019-04-14T18:09:55.001Z,19.67
2019-04-14T18:16:26.083Z,18.60
2019-04-14T18:19:44.420Z,16.90
2019-04-14T18:22:52.039Z,18.23
2019-04-14T18:26:00.189Z,28.13
2019-04-14T18:29:29.994Z,25.33
2019-04-14T18:32:49.850Z,18.37
2019-04-14T18:36:08.692Z,19.80
2019-04-14T18:39:36.503Z,19.87
2019-04-14T18:43:16.266Z,15.53
2019-04-14T18:46:46.974Z,16.17
2019-04-14T18:50:14.785Z,16.60
2019-04-14T18:53:27.907Z,17.67
2019-04-14T18:56:43.995Z,20.60
2019-04-14T18:59:56.845Z,15.93
2019-04-14T19:03:05.382Z,21.90
2019-04-14T19:06:12.982Z,18.03
2019-04-14T19:09:33.993Z,20.03
2019-04-14T19:12:58.981Z,19.17
2019-04-14T19:16:11.802Z,19.73
2019-04-14T19:19:20.111Z,19.87
2019-04-14T19:22:27.877Z,19.57
2019-04-14T19:25:35.885Z,22.40
2019-04-14T19:28:44.547Z,20.63
2019-04-14T19:31:52.063Z,21.00
2019-04-14T19:35:01.467Z,23.20
2019-04-14T19:38:09.255Z,20.43
2019-04-14T19:41:16.994Z,21.27
2019-04-14T19:44:25.270Z,18.00
2019-04-14T19:47:33.096Z,20.30
2019-04-14T19:50:41.215Z,19.00
2019-04-14T19:53:49.599Z,18.83
2019-04-14T19:56:57.511Z,17.07
2019-04-14T20:00:06.358Z,18.67
2019-04-14T20:03:13.928Z,20.53
2019-04-14T20:06:22.011Z,20.77
2019-04-14T20:09:30.906Z,20.27
2019-04-14T20:12:39.684Z,16.57
2019-04-14T20:16:10.208Z,19.93
2019-04-14T20:19:33.103Z,18.63
2019-04-14T20:23:09.356Z,18.40
2019-04-14T20:26:25.840Z,21.10
2019-04-14T20:29:37.254Z,17.77
2019-04-14T20:32:44.908Z,17.53
2019-04-14T20:35:52.337Z,20.33
2019-04-14T20:39:00.432Z,17.93
2019-04-14T20:42:08.403Z,20.53
2019-04-14T20:45:16.908Z,23.97
2019-04-14T20:48:25.419Z,19.97
2019-04-14T20:51:33.974Z,20.23
2019-04-14T20:54:42.042Z,21.33
2019-04-14T20:57:50.446Z,19.07
2019-04-14T21:00:58.295Z,21.17
2019-04-14T21:04:28.169Z,21.53
2019-04-14T21:08:04.836Z,20.87
2019-04-14T21:11:19.312Z,19.00
2019-04-14T21:14:43.085Z,22.00
2019-04-14T21:18:09.659Z,22.23
2019-04-14T21:21:42.260Z,19.00
2019-04-14T21:24:57.402Z,21.30
2019-04-14T21:28:32.555Z,18.63
2019-04-14T21:31:46.056Z,23.03
2019-04-14T21:35:06.431Z,21.53
2019-04-14T21:38:33.826Z,21.40
2019-04-14T21:41:43.055Z,22.43
2019-04-14T21:44:50.767Z,24.50
2019-04-14T21:47:58.862Z,24.57
2019-04-14T21:51:08.035Z,26.33
2019-04-14T21:54:17.777Z,21.87
2019-04-14T21:57:44.772Z,25.53
2019-04-14T22:01:54.213Z,20.57
2019-04-14T22:05:15.822Z,21.63
2019-04-14T22:08:27.085Z,22.50
2019-04-14T22:11:34.555Z,22.90
2019-04-14T22:14:42.320Z,25.03
2019-04-14T22:17:50.649Z,22.40
2019-04-14T22:20:58.874Z,21.47
2019-04-14T22:24:06.863Z,23.03
2019-04-14T22:27:20.027Z,20.50
2019-04-14T22:30:27.531Z,22.67
2019-04-14T22:33:35.402Z,26.40
2019-04-14T22:36:43.067Z,22.93
2019-04-14T22:39:50.762Z,21.20
2019-04-14T22:42:58.339Z,23.90
2019-04-14T22:46:05.685Z,22.60
2019-04-14T22:49:13.126Z,21.67
2019-04-14T22:52:20.302Z,22.73
2019-04-14T22:55:30.850Z,27.67
2019-04-14T22:58:38.820Z,21.03
2019-04-14T23:01:50.470Z,23.87
2019-04-14T23:05:09.979Z,23.27
2019-04-14T23:08:37.645Z,25.03
2019-04-14T23:12:00.396Z,24.00
2019-04-14T23:15:24.271Z,23.40
2019-04-14T23:18:36.486Z,26.63
2019-04-14T23:21:52.233Z,26.37
2019-04-14T23:25:00.034Z,24.60
2019-04-14T23:28:09.222Z,24.57
2019-04-14T23:31:16.500Z,25.00
2019-04-14T23:34:24.468Z,28.43
2019-04-14T23:37:32.431Z,25.93
2019-04-14T23:40:39.720Z,26.53
2019-04-14T23:43:47.356Z,27.10
2019-04-14T23:46:57.070Z,26.90
2019-04-14T23:50:05.169Z,27.47
2019-04-14T23:53:12.772Z,25.93
2019-04-14T23:56:20.264Z,24.83
2019-04-14T23:59:28.848Z,26.37
